Terminal Aerodrome Forecast
Issued by NWS

Home | Current Version | Previous Version | Text Only | Print | Product List | Glossary On
Versions: 1 2 3 4 5 6 7 8 9 10 11 12 13 14 15
838
FTUS44 KLIX 022340
TAFMCB
TAF
KMCB 022340Z 0300/0324 08004KT P6SM BKN200
     FM030600 08005KT P6SM VCSH OVC070
     FM030900 08007KT P6SM OVC050 PROB30 0309/0312 4SM -RA OVC025
     FM031200 09010KT P6SM -RA OVC050
     FM031600 09010KT 3SM RA OVC050
     FM031900 09010KT 6SM -RA OVC045=

USA.gov is the U.S. government's official web portal to all federal, state and local government web resources and services.